Time;durP1;ratioP1;P1;durP2;ratioP2;P2;SDS_P1;SDS_P2;PMS_P1;PMS_P2;Temp;Humidity;BMP_temperature;BMP_pressure;BME280_temperature;BME280_humidity;BME280_pressure;Samples;Min_cycle;Max_cycle;Signal;HPM_P1;HPM_P2
2022/03/27 00:01:04;;;;;;;;;25.50;23.25;;;;;;;;5078119;28;45449;-71
2022/03/27 00:03:29;;;;;;;;;28.25;26.75;;;;;;;;5077739;27;45345;-71
2022/03/27 00:05:54;;;;;;;;;24.25;23.00;;;;;;;;5078056;27;45298;-71
2022/03/27 00:08:20;;;;;;;;;24.00;23.00;;;;;;;;5077790;28;45633;-71
2022/03/27 00:13:29;;;;;;;;;27.75;24.00;;;;;;;;5076756;28;45837;-71
2022/03/27 00:15:55;;;;;;;;;27.50;24.75;;;;;;;;5077565;27;45336;-71
2022/03/27 00:18:20;;;;;;;;;24.00;22.25;;;;;;;;5077867;27;45309;-71
2022/03/27 00:20:45;;;;;;;;;24.50;22.50;;;;;;;;5077682;27;45390;-71
2022/03/27 00:23:11;;;;;;;;;24.25;21.50;;;;;;;;5076176;27;46319;-71
2022/03/27 00:25:36;;;;;;;;;22.50;20.25;;;;;;;;5077704;28;45390;-71
2022/03/27 00:28:02;;;;;;;;;22.00;20.00;;;;;;;;5076157;28;45480;-71
2022/03/27 00:30:28;;;;;;;;;20.00;18.50;;;;;;;;5076579;27;45429;-71
2022/03/27 00:32:53;;;;;;;;;21.75;20.50;;;;;;;;5077229;28;46194;-71
2022/03/27 00:35:19;;;;;;;;;20.00;19.25;;;;;;;;5077664;28;45251;-71
2022/03/27 00:37:44;;;;;;;;;19.25;19.00;;;;;;;;5077605;27;45438;-71
2022/03/27 00:40:09;;;;;;;;;24.25;22.75;;;;;;;;5077497;28;45396;-71
2022/03/27 00:42:35;;;;;;;;;23.00;19.75;;;;;;;;5077315;27;46275;-71
2022/03/27 00:45:01;;;;;;;;;24.75;22.00;;;;;;;;5077345;28;45417;-71
2022/03/27 00:47:27;;;;;;;;;24.00;20.50;;;;;;;;5077615;28;45524;-71
2022/03/27 00:49:52;;;;;;;;;24.00;20.75;;;;;;;;5076348;27;45450;-71
2022/03/27 00:52:17;;;;;;;;;18.75;18.00;;;;;;;;5075739;28;46082;-71
2022/03/27 00:54:43;;;;;;;;;19.00;18.00;;;;;;;;5077151;28;45330;-71
2022/03/27 00:57:08;;;;;;;;;20.25;19.25;;;;;;;;5077598;28;45423;-71
2022/03/27 00:59:34;;;;;;;;;19.25;17.50;;;;;;;;5075986;28;45444;-71
2022/03/27 01:02:01;;;;;;;;;20.50;18.00;;;;;;;;5077021;28;46024;-71
2022/03/27 01:04:27;;;;;;;;;17.00;16.00;;;;;;;;5077014;28;45580;-71
2022/03/27 01:06:52;;;;;;;;;15.50;14.50;;;;;;;;5076987;28;45811;-71
2022/03/27 01:09:36;;;;;;;;;17.50;15.00;;;;;;;;5077261;27;45509;-71
2022/03/27 01:12:22;;;;;;;;;18.50;16.75;;;;;;;;5074683;28;45682;-71
2022/03/27 01:14:48;;;;;;;;;17.00;14.75;;;;;;;;5075501;28;45571;-71
2022/03/27 01:17:15;;;;;;;;;15.25;14.50;;;;;;;;5077257;27;45440;-71
2022/03/27 01:19:43;;;;;;;;;13.25;12.75;;;;;;;;5077498;28;45372;-71
2022/03/27 01:22:09;;;;;;;;;12.50;12.25;;;;;;;;5078666;28;45334;-71
2022/03/27 01:24:34;;;;;;;;;17.50;13.25;;;;;;;;5078217;28;45356;-71
2022/03/27 01:26:59;;;;;;;;;15.25;13.75;;;;;;;;5078609;28;45327;-71
2022/03/27 01:29:25;;;;;;;;;16.25;13.75;;;;;;;;5078481;28;45488;-71
2022/03/27 01:31:51;;;;;;;;;15.00;14.00;;;;;;;;5078141;28;45966;-71
2022/03/27 01:34:17;;;;;;;;;16.00;15.00;;;;;;;;5077979;28;45359;-71
2022/03/27 01:36:42;;;;;;;;;14.50;12.25;;;;;;;;5077067;28;45350;-71
2022/03/27 01:39:09;;;;;;;;;14.25;13.25;;;;;;;;5078589;27;45448;-71
2022/03/27 01:41:35;;;;;;;;;14.00;12.50;;;;;;;;5078300;28;46254;-71
2022/03/27 01:44:00;;;;;;;;;13.00;12.25;;;;;;;;5077856;27;45294;-71
2022/03/27 01:46:30;;;;;;;;;12.50;9.75;;;;;;;;5078390;28;45468;-71
2022/03/27 01:48:55;;;;;;;;;13.25;13.00;;;;;;;;5078439;27;45330;-71
2022/03/27 01:51:21;;;;;;;;;11.25;9.50;;;;;;;;5076928;28;45556;-71
2022/03/27 01:53:46;;;;;;;;;15.25;13.25;;;;;;;;5078116;28;45331;-71
2022/03/27 01:56:12;;;;;;;;;12.25;11.00;;;;;;;;5078247;27;45475;-71
2022/03/27 01:58:38;;;;;;;;;13.00;11.00;;;;;;;;5077419;28;45225;-71
2022/03/27 02:01:05;;;;;;;;;13.75;12.00;;;;;;;;5077735;27;45521;-71
2022/03/27 02:03:30;;;;;;;;;12.75;12.00;;;;;;;;5078976;28;45545;-72
2022/03/27 02:05:55;;;;;;;;;13.50;12.25;;;;;;;;5081000;28;45654;-72
2022/03/27 02:08:22;;;;;;;;;13.75;12.50;;;;;;;;5078303;28;45572;-72
2022/03/27 02:10:47;;;;;;;;;13.25;12.25;;;;;;;;5078100;28;46329;-71
2022/03/27 02:13:14;;;;;;;;;14.00;12.75;;;;;;;;5076673;28;45546;-72
2022/03/27 02:15:39;;;;;;;;;13.00;11.50;;;;;;;;5078061;28;45377;-72
2022/03/27 02:18:04;;;;;;;;;14.50;11.75;;;;;;;;5077797;28;45611;-71
2022/03/27 02:20:30;;;;;;;;;13.00;12.75;;;;;;;;5077535;28;45592;-72
2022/03/27 02:22:55;;;;;;;;;13.25;11.50;;;;;;;;5076343;28;45281;-72
2022/03/27 02:25:21;;;;;;;;;14.00;13.50;;;;;;;;5077868;27;45252;-71
2022/03/27 02:27:46;;;;;;;;;15.25;14.25;;;;;;;;5076581;28;45370;-71
2022/03/27 02:30:12;;;;;;;;;23.50;19.00;;;;;;;;5077719;28;45512;-72
2022/03/27 02:32:37;;;;;;;;;30.50;24.50;;;;;;;;5075918;28;45373;-71
2022/03/27 02:35:03;;;;;;;;;15.50;14.00;;;;;;;;5077573;28;45526;-72
2022/03/27 02:37:28;;;;;;;;;15.50;14.75;;;;;;;;5077836;28;45286;-71
2022/03/27 02:39:53;;;;;;;;;21.00;19.25;;;;;;;;5077333;28;45591;-72
2022/03/27 02:42:19;;;;;;;;;11.00;8.25;;;;;;;;5077420;28;45488;-72
2022/03/27 02:44:44;;;;;;;;;15.00;13.75;;;;;;;;5077975;28;45471;-72
2022/03/27 02:47:09;;;;;;;;;16.75;14.75;;;;;;;;5077448;28;45338;-71
2022/03/27 02:49:35;;;;;;;;;14.75;12.25;;;;;;;;5075627;28;45858;-71
2022/03/27 02:52:00;;;;;;;;;14.25;13.75;;;;;;;;5077071;27;45480;-71
2022/03/27 02:54:25;;;;;;;;;18.50;13.00;;;;;;;;5077705;28;45445;-71
2022/03/27 02:56:51;;;;;;;;;26.00;25.00;;;;;;;;5077770;28;45484;-72
2022/03/27 02:59:16;;;;;;;;;20.50;18.00;;;;;;;;5075677;28;47055;-71
2022/03/27 03:01:42;;;;;;;;;16.00;14.50;;;;;;;;5077278;28;45385;-71
2022/03/27 03:04:08;;;;;;;;;14.25;13.25;;;;;;;;5080428;28;45443;-71
2022/03/27 03:06:33;;;;;;;;;27.25;23.25;;;;;;;;5079601;27;45558;-72
2022/03/27 03:08:59;;;;;;;;;37.25;30.75;;;;;;;;5080686;27;46162;-71
2022/03/27 03:11:24;;;;;;;;;18.00;15.25;;;;;;;;5080683;27;45299;-71
2022/03/27 03:13:53;;;;;;;;;21.75;19.75;;;;;;;;5080785;28;45277;-71
2022/03/27 03:16:20;;;;;;;;;20.75;18.25;;;;;;;;5080678;28;45172;-72
2022/03/27 03:18:45;;;;;;;;;33.25;28.75;;;;;;;;5080593;28;45439;-71
2022/03/27 03:21:11;;;;;;;;;24.00;20.75;;;;;;;;5080310;28;45289;-71
2022/03/27 03:23:36;;;;;;;;;22.75;21.00;;;;;;;;5079238;28;45456;-71
2022/03/27 03:26:02;;;;;;;;;17.00;15.00;;;;;;;;5080743;28;45383;-72
2022/03/27 03:28:27;;;;;;;;;14.25;12.50;;;;;;;;5080172;28;45420;-72
2022/03/27 03:30:53;;;;;;;;;12.75;10.75;;;;;;;;5079972;27;45457;-72
2022/03/27 03:33:21;;;;;;;;;15.75;12.50;;;;;;;;5080506;27;45277;-71
2022/03/27 03:35:47;;;;;;;;;12.50;11.75;;;;;;;;5079393;28;45441;-72
2022/03/27 03:38:12;;;;;;;;;20.75;16.50;;;;;;;;5078624;28;48068;-71
2022/03/27 03:40:40;;;;;;;;;15.00;14.00;;;;;;;;5080142;28;45228;-71
2022/03/27 03:43:05;;;;;;;;;17.75;17.25;;;;;;;;5080295;28;45382;-71
2022/03/27 03:45:31;;;;;;;;;15.00;13.50;;;;;;;;5080382;27;45498;-71
2022/03/27 03:47:56;;;;;;;;;16.75;15.75;;;;;;;;5080090;28;46175;-71
2022/03/27 03:50:21;;;;;;;;;13.50;10.75;;;;;;;;5080134;28;45344;-71
2022/03/27 03:52:47;;;;;;;;;12.25;11.50;;;;;;;;5080416;27;45948;-71
2022/03/27 03:55:12;;;;;;;;;13.00;12.25;;;;;;;;5080212;28;45377;-71
2022/03/27 03:57:38;;;;;;;;;15.50;13.50;;;;;;;;5079878;28;45492;-72
2022/03/27 04:00:03;;;;;;;;;16.25;15.00;;;;;;;;5079834;27;45367;-71
2022/03/27 04:02:29;;;;;;;;;16.25;14.50;;;;;;;;5079740;28;45489;-71
2022/03/27 04:04:54;;;;;;;;;15.00;12.50;;;;;;;;5079989;28;45269;-71
2022/03/27 04:07:20;;;;;;;;;15.50;15.00;;;;;;;;5079907;28;45464;-71
2022/03/27 04:09:45;;;;;;;;;11.50;11.00;;;;;;;;5079945;28;45451;-71
2022/03/27 04:12:11;;;;;;;;;12.50;12.00;;;;;;;;5078542;28;45336;-71
2022/03/27 04:14:36;;;;;;;;;13.00;13.00;;;;;;;;5078996;28;45467;-71
2022/03/27 04:17:02;;;;;;;;;21.25;19.75;;;;;;;;5079182;28;45337;-71
2022/03/27 04:19:28;;;;;;;;;21.75;20.75;;;;;;;;5079288;28;45277;-71
2022/03/27 04:21:53;;;;;;;;;19.75;17.50;;;;;;;;5079534;28;45497;-72
2022/03/27 04:24:19;;;;;;;;;20.00;18.50;;;;;;;;5078751;28;45512;-71
2022/03/27 04:26:45;;;;;;;;;13.50;12.50;;;;;;;;5078179;27;46848;-72
2022/03/27 04:29:10;;;;;;;;;12.25;12.00;;;;;;;;5077461;27;45513;-71
2022/03/27 04:31:36;;;;;;;;;13.25;12.00;;;;;;;;5079538;28;45247;-71
2022/03/27 04:34:01;;;;;;;;;14.75;12.50;;;;;;;;5079494;28;45654;-71
2022/03/27 04:36:27;;;;;;;;;17.00;14.00;;;;;;;;5079476;28;46489;-71
2022/03/27 04:38:52;;;;;;;;;13.00;13.00;;;;;;;;5079180;28;45362;-71
2022/03/27 04:41:17;;;;;;;;;13.00;12.00;;;;;;;;5079595;28;45345;-71
2022/03/27 04:43:48;;;;;;;;;13.50;12.25;;;;;;;;5079390;28;45291;-71
2022/03/27 04:46:14;;;;;;;;;12.25;10.50;;;;;;;;5077648;27;47128;-71
2022/03/27 04:48:39;;;;;;;;;11.50;11.25;;;;;;;;5078904;28;45350;-72
2022/03/27 04:51:04;;;;;;;;;13.50;10.75;;;;;;;;5077799;28;45480;-71
2022/03/27 04:53:30;;;;;;;;;10.00;10.00;;;;;;;;5079454;28;45423;-72
2022/03/27 04:55:55;;;;;;;;;10.00;10.00;;;;;;;;5077677;27;45471;-71
2022/03/27 04:58:20;;;;;;;;;9.00;9.00;;;;;;;;5079350;28;45374;-72
2022/03/27 05:00:46;;;;;;;;;11.25;10.00;;;;;;;;5079993;28;45204;-72
2022/03/27 05:03:12;;;;;;;;;12.00;9.75;;;;;;;;5081191;28;45317;-71
2022/03/27 05:05:37;;;;;;;;;11.75;11.50;;;;;;;;5077741;28;45325;-71
2022/03/27 05:08:03;;;;;;;;;13.75;13.00;;;;;;;;5077602;28;45383;-72
2022/03/27 05:10:28;;;;;;;;;12.00;10.75;;;;;;;;5077590;28;45353;-72
2022/03/27 05:12:54;;;;;;;;;7.00;7.00;;;;;;;;5077948;27;45579;-71
2022/03/27 05:15:19;;;;;;;;;11.00;10.25;;;;;;;;5078683;27;45456;-71
2022/03/27 05:17:45;;;;;;;;;12.00;10.75;;;;;;;;5077426;28;45429;-72
2022/03/27 05:20:10;;;;;;;;;12.00;10.25;;;;;;;;5077482;28;45234;-71
2022/03/27 05:22:36;;;;;;;;;12.50;12.25;;;;;;;;5077458;28;45614;-71
2022/03/27 05:25:01;;;;;;;;;8.50;8.25;;;;;;;;5077163;27;46502;-71
2022/03/27 05:27:27;;;;;;;;;15.25;12.00;;;;;;;;5078396;28;45299;-72
2022/03/27 05:29:52;;;;;;;;;11.25;11.00;;;;;;;;5078853;27;45374;-71
2022/03/27 05:32:17;;;;;;;;;11.50;10.25;;;;;;;;5078593;27;45467;-71
2022/03/27 05:34:43;;;;;;;;;12.25;10.50;;;;;;;;5078214;27;45539;-71
2022/03/27 05:37:08;;;;;;;;;11.25;10.75;;;;;;;;5077218;28;45238;-72
2022/03/27 05:39:34;;;;;;;;;7.50;7.50;;;;;;;;5078606;28;45291;-71
2022/03/27 05:41:59;;;;;;;;;12.00;9.50;;;;;;;;5078454;28;45406;-71
2022/03/27 05:44:24;;;;;;;;;10.75;7.75;;;;;;;;5077162;28;46626;-71
2022/03/27 05:46:50;;;;;;;;;9.25;9.25;;;;;;;;5078204;28;45543;-72
2022/03/27 05:49:15;;;;;;;;;10.50;10.00;;;;;;;;5076783;28;45370;-71
2022/03/27 05:51:40;;;;;;;;;12.50;11.50;;;;;;;;5077124;28;45672;-71
2022/03/27 05:54:06;;;;;;;;;11.25;11.25;;;;;;;;5078162;28;46560;-71
2022/03/27 05:56:31;;;;;;;;;11.25;11.25;;;;;;;;5078007;28;45315;-71
2022/03/27 05:58:56;;;;;;;;;10.50;10.50;;;;;;;;5078224;28;45445;-71
2022/03/27 06:01:22;;;;;;;;;17.75;17.50;;;;;;;;5078164;28;45282;-71
2022/03/27 06:03:47;;;;;;;;;12.25;12.00;;;;;;;;5076496;28;45508;-71
2022/03/27 06:06:14;;;;;;;;;11.75;11.50;;;;;;;;5075646;27;45516;-71
2022/03/27 06:08:39;;;;;;;;;12.75;11.00;;;;;;;;5076196;27;45358;-71
2022/03/27 06:11:05;;;;;;;;;13.00;11.25;;;;;;;;5076323;28;45530;-71
2022/03/27 06:13:30;;;;;;;;;16.50;13.00;;;;;;;;5075877;28;45480;-71
2022/03/27 06:15:55;;;;;;;;;16.25;14.00;;;;;;;;5076253;27;45497;-71
2022/03/27 06:18:21;;;;;;;;;13.75;11.25;;;;;;;;5076203;28;45550;-71
2022/03/27 06:20:46;;;;;;;;;11.50;11.50;;;;;;;;5076416;28;45578;-71
2022/03/27 06:23:13;;;;;;;;;12.75;12.25;;;;;;;;5076141;27;46113;-71
2022/03/27 06:25:38;;;;;;;;;12.50;10.75;;;;;;;;5075878;28;45397;-71
2022/03/27 06:28:04;;;;;;;;;11.25;11.25;;;;;;;;5075798;27;45533;-71
2022/03/27 06:30:30;;;;;;;;;12.50;11.25;;;;;;;;5074765;28;45642;-71
2022/03/27 06:32:55;;;;;;;;;9.50;9.50;;;;;;;;5075929;28;46298;-71
2022/03/27 06:35:22;;;;;;;;;12.25;10.75;;;;;;;;5075470;27;45322;-71
2022/03/27 06:37:48;;;;;;;;;12.50;12.25;;;;;;;;5075374;27;45385;-71
2022/03/27 06:40:14;;;;;;;;;5.25;4.50;;;;;;;;5076087;28;45780;-71
2022/03/27 06:42:39;;;;;;;;;12.00;11.50;;;;;;;;5076275;28;46178;-71
2022/03/27 06:45:05;;;;;;;;;14.75;12.00;;;;;;;;5076458;27;45403;-71
2022/03/27 06:47:32;;;;;;;;;14.75;11.50;;;;;;;;5076458;28;45357;-70
2022/03/27 06:49:58;;;;;;;;;13.75;13.75;;;;;;;;5075572;28;45200;-71
2022/03/27 06:52:24;;;;;;;;;13.75;13.00;;;;;;;;5076196;27;45958;-71
2022/03/27 06:54:50;;;;;;;;;13.75;12.50;;;;;;;;5076187;28;45561;-71
2022/03/27 06:57:16;;;;;;;;;14.00;13.75;;;;;;;;5073652;28;45547;-70
2022/03/27 07:05:10;;;;;;;;;13.00;12.50;;;;;;;;5075853;28;45441;-71
2022/03/27 07:07:36;;;;;;;;;16.25;13.00;;;;;;;;5075885;28;45551;-71
2022/03/27 07:10:02;;;;;;;;;11.75;11.75;;;;;;;;5074859;28;45688;-71
2022/03/27 07:12:27;;;;;;;;;13.75;13.50;;;;;;;;5075270;28;47044;-71
2022/03/27 07:14:53;;;;;;;;;13.50;13.25;;;;;;;;5076042;28;45392;-71
2022/03/27 07:17:18;;;;;;;;;12.25;11.75;;;;;;;;5076175;28;45370;-71
2022/03/27 07:19:47;;;;;;;;;11.25;10.75;;;;;;;;5075004;28;45325;-71
2022/03/27 07:22:13;;;;;;;;;10.67;10.33;;;;;;;;5072910;27;46678;-71
2022/03/27 07:24:38;;;;;;;;;11.25;10.75;;;;;;;;5074648;27;45444;-71
2022/03/27 07:27:04;;;;;;;;;9.00;8.75;;;;;;;;5074596;28;45645;-71
2022/03/27 07:29:35;;;;;;;;;10.33;9.67;;;;;;;;5076007;27;45549;-71
2022/03/27 07:32:00;;;;;;;;;11.00;9.67;;;;;;;;5075437;27;46152;-71
2022/03/27 07:34:25;;;;;;;;;9.67;9.67;;;;;;;;5075639;27;45575;-71
2022/03/27 07:36:51;;;;;;;;;9.67;9.00;;;;;;;;5075617;27;45543;-71
2022/03/27 07:39:16;;;;;;;;;10.00;9.00;;;;;;;;5074573;27;45580;-71
2022/03/27 07:41:41;;;;;;;;;11.67;11.33;;;;;;;;5075376;27;46546;-71
2022/03/27 07:44:07;;;;;;;;;11.67;11.67;;;;;;;;5073826;28;45504;-71
2022/03/27 07:46:33;;;;;;;;;9.33;9.33;;;;;;;;5072857;28;45395;-71
2022/03/27 07:48:59;;;;;;;;;14.00;13.33;;;;;;;;5076031;27;45365;-71
2022/03/27 07:51:24;;;;;;;;;9.67;9.00;;;;;;;;5078559;28;46171;-71
2022/03/27 07:53:49;;;;;;;;;11.00;11.00;;;;;;;;5077941;27;45465;-71
2022/03/27 07:56:15;;;;;;;;;9.67;9.00;;;;;;;;5078768;27;45724;-71
2022/03/27 07:58:40;;;;;;;;;8.67;8.00;;;;;;;;5078217;28;45542;-73
2022/03/27 08:01:06;;;;;;;;;9.00;8.33;;;;;;;;5077065;27;45532;-72
2022/03/27 08:03:33;;;;;;;;;8.00;8.00;;;;;;;;5076157;27;45572;-71
2022/03/27 08:05:59;;;;;;;;;9.67;9.67;;;;;;;;5077697;28;46018;-70
2022/03/27 08:08:25;;;;;;;;;13.00;10.67;;;;;;;;5078147;27;45836;-70
2022/03/27 08:10:50;;;;;;;;;12.00;11.00;;;;;;;;5078719;27;45528;-70
2022/03/27 08:13:15;;;;;;;;;8.00;7.33;;;;;;;;5076870;28;45469;-70
2022/03/27 08:15:41;;;;;;;;;6.00;5.33;;;;;;;;5078716;27;45291;-70
2022/03/27 08:18:06;;;;;;;;;7.33;7.33;;;;;;;;5078912;28;45466;-71
2022/03/27 08:20:32;;;;;;;;;10.00;9.33;;;;;;;;5078447;28;46179;-71
2022/03/27 08:22:58;;;;;;;;;8.33;7.67;;;;;;;;5077065;27;45497;-71
2022/03/27 08:28:07;;;;;;;;;10.00;9.00;;;;;;;;5078915;28;45430;-71
2022/03/27 08:30:33;;;;;;;;;8.00;8.00;;;;;;;;5077677;27;46203;-71
2022/03/27 08:32:58;;;;;;;;;7.67;7.00;;;;;;;;5078245;27;45584;-71
2022/03/27 08:35:23;;;;;;;;;9.00;8.67;;;;;;;;5078627;27;45485;-79
2022/03/27 08:37:49;;;;;;;;;8.67;8.67;;;;;;;;5077221;28;45405;-79
2022/03/27 08:40:15;;;;;;;;;7.67;7.67;;;;;;;;5077736;27;46456;-77
2022/03/27 08:42:41;;;;;;;;;12.67;12.00;;;;;;;;5077375;27;45473;-80
2022/03/27 08:45:07;;;;;;;;;8.00;8.00;;;;;;;;5076115;28;45527;-81
2022/03/27 08:47:32;;;;;;;;;8.67;8.00;;;;;;;;5077468;28;45424;-79
2022/03/27 08:49:58;;;;;;;;;7.50;7.50;;;;;;;;5077313;27;46179;-79
2022/03/27 08:52:39;;;;;;;;;7.00;6.67;;;;;;;;5076286;28;45506;-77
2022/03/27 08:55:05;;;;;;;;;8.33;7.67;;;;;;;;5078586;27;45168;-73
2022/03/27 08:57:52;;;;;;;;;6.00;6.00;;;;;;;;5079006;28;46027;-74
2022/03/27 09:00:24;;;;;;;;;6.00;6.00;;;;;;;;5076820;28;45627;-73
2022/03/27 09:02:50;;;;;;;;;7.33;5.67;;;;;;;;5078624;28;45581;-74
2022/03/27 09:05:17;;;;;;;;;7.00;6.33;;;;;;;;5078057;27;46205;-73
2022/03/27 09:07:42;;;;;;;;;12.67;11.00;;;;;;;;5078316;27;45619;-73
2022/03/27 09:10:08;;;;;;;;;9.33;8.33;;;;;;;;5076571;27;45544;-73
2022/03/27 09:12:34;;;;;;;;;12.67;12.67;;;;;;;;5078033;28;45493;-74
2022/03/27 09:15:00;;;;;;;;;9.33;8.00;;;;;;;;5076701;27;45380;-73
2022/03/27 09:17:25;;;;;;;;;10.67;9.67;;;;;;;;5078692;27;45350;-74
2022/03/27 09:19:51;;;;;;;;;10.00;8.67;;;;;;;;5078319;27;46496;-73
2022/03/27 09:22:21;;;;;;;;;7.00;5.67;;;;;;;;5078191;27;45488;-74
2022/03/27 09:24:48;;;;;;;;;7.00;7.00;;;;;;;;5077959;27;45317;-72
2022/03/27 09:27:14;;;;;;;;;6.67;5.67;;;;;;;;5077098;27;45602;-72
2022/03/27 09:29:59;;;;;;;;;6.67;6.00;;;;;;;;5078210;27;46035;-72
2022/03/27 09:32:35;;;;;;;;;6.67;5.33;;;;;;;;5076691;28;45670;-73
2022/03/27 09:35:00;;;;;;;;;5.33;5.33;;;;;;;;5076844;28;45327;-73
2022/03/27 09:37:30;;;;;;;;;8.67;8.33;;;;;;;;5077008;27;45686;-72
2022/03/27 09:39:56;;;;;;;;;8.00;6.67;;;;;;;;5076911;27;46813;-73
2022/03/27 09:42:22;;;;;;;;;8.33;6.67;;;;;;;;5076497;28;45321;-73
2022/03/27 09:44:47;;;;;;;;;10.33;7.33;;;;;;;;5076392;27;45365;-74
2022/03/27 09:47:12;;;;;;;;;6.67;6.67;;;;;;;;5078307;27;45368;-73
2022/03/27 09:49:38;;;;;;;;;8.33;6.33;;;;;;;;5077885;27;45451;-73
2022/03/27 09:52:12;;;;;;;;;6.33;6.00;;;;;;;;5076812;27;45344;-73
2022/03/27 09:54:50;;;;;;;;;8.33;6.67;;;;;;;;5077979;27;45337;-73
2022/03/27 09:57:16;;;;;;;;;5.00;5.00;;;;;;;;5077462;28;45518;-73
2022/03/27 09:59:42;;;;;;;;;6.67;6.33;;;;;;;;5077130;27;45986;-73
2022/03/27 10:02:21;;;;;;;;;9.67;9.67;;;;;;;;5077575;27;45346;-74
2022/03/27 10:04:53;;;;;;;;;6.67;6.67;;;;;;;;5077908;27;45350;-73
2022/03/27 10:07:19;;;;;;;;;10.00;8.33;;;;;;;;5076326;28;45624;-73
2022/03/27 10:09:44;;;;;;;;;6.67;6.33;;;;;;;;5077054;27;47551;-74
2022/03/27 10:12:10;;;;;;;;;7.67;7.33;;;;;;;;5075496;27;45482;-73
2022/03/27 10:14:36;;;;;;;;;8.67;8.67;;;;;;;;5076805;27;45508;-73
2022/03/27 10:17:02;;;;;;;;;8.00;8.00;;;;;;;;5077922;27;45464;-74
2022/03/27 10:19:36;;;;;;;;;6.33;6.00;;;;;;;;5077419;27;45629;-73
2022/03/27 10:22:05;;;;;;;;;31.75;27.25;;;;;;;;5076079;28;45394;-72
2022/03/27 10:24:31;;;;;;;;;6.00;6.00;;;;;;;;5077586;27;45362;-72
2022/03/27 10:27:02;;;;;;;;;7.00;7.00;;;;;;;;5077509;27;45361;-73
2022/03/27 10:29:28;;;;;;;;;8.67;7.67;;;;;;;;5076903;28;45576;-73
2022/03/27 10:31:54;;;;;;;;;6.67;6.67;;;;;;;;5075646;27;45339;-73
2022/03/27 10:34:21;;;;;;;;;11.00;10.67;;;;;;;;5077206;27;45235;-73
2022/03/27 10:37:07;;;;;;;;;10.67;9.67;;;;;;;;5075853;27;45377;-74
2022/03/27 10:39:37;;;;;;;;;7.00;7.00;;;;;;;;5077274;27;45386;-73
2022/03/27 10:42:05;;;;;;;;;10.67;10.33;;;;;;;;5077034;27;45427;-73
2022/03/27 10:44:34;;;;;;;;;10.67;10.33;;;;;;;;5075931;27;45531;-73
2022/03/27 10:47:18;;;;;;;;;11.33;11.00;;;;;;;;5076018;28;45622;-73
2022/03/27 10:50:02;;;;;;;;;11.00;10.33;;;;;;;;5075618;28;45468;-74
2022/03/27 10:52:27;;;;;;;;;18.00;13.00;;;;;;;;5077121;27;45510;-74
2022/03/27 10:55:01;;;;;;;;;17.00;15.00;;;;;;;;5077252;28;45515;-74
2022/03/27 10:57:30;;;;;;;;;15.33;13.67;;;;;;;;5077861;27;45232;-74
2022/03/27 10:59:56;;;;;;;;;13.00;12.67;;;;;;;;5075556;28;45520;-74
2022/03/27 11:02:40;;;;;;;;;23.33;22.00;;;;;;;;5076780;28;45430;-74
2022/03/27 11:05:06;;;;;;;;;26.33;24.33;;;;;;;;5076846;28;45498;-72
2022/03/27 11:07:31;;;;;;;;;41.50;35.50;;;;;;;;5075883;27;45544;-72
2022/03/27 11:09:56;;;;;;;;;44.00;37.25;;;;;;;;5075359;28;45396;-73
2022/03/27 11:12:22;;;;;;;;;54.75;45.75;;;;;;;;5076878;27;45476;-73
2022/03/27 11:15:00;;;;;;;;;46.75;39.75;;;;;;;;5076876;27;45369;-74
2022/03/27 11:17:41;;;;;;;;;46.75;39.50;;;;;;;;5076396;27;45492;-72
2022/03/27 11:20:26;;;;;;;;;48.75;41.50;;;;;;;;5075166;27;46591;-72
2022/03/27 11:22:59;;;;;;;;;43.50;36.75;;;;;;;;5067523;28;45341;-74
2022/03/27 11:25:24;;;;;;;;;45.75;38.25;;;;;;;;5079813;28;45238;-73
2022/03/27 11:27:57;;;;;;;;;36.75;32.75;;;;;;;;5078872;27;45642;-72
2022/03/27 11:30:24;;;;;;;;;34.00;30.75;;;;;;;;5079815;27;45814;-72
2022/03/27 11:33:09;;;;;;;;;22.33;21.00;;;;;;;;5080086;27;45443;-72
2022/03/27 11:35:34;;;;;;;;;19.00;16.00;;;;;;;;5080170;28;45312;-72
2022/03/27 11:38:18;;;;;;;;;18.00;18.00;;;;;;;;5078895;27;45527;-73
2022/03/27 11:40:43;;;;;;;;;32.25;29.00;;;;;;;;5078651;28;46400;-73
2022/03/27 11:43:29;;;;;;;;;22.25;21.50;;;;;;;;5078791;27;45354;-72
2022/03/27 11:45:55;;;;;;;;;28.00;25.00;;;;;;;;5079777;27;45474;-72
2022/03/27 11:48:20;;;;;;;;;19.67;16.33;;;;;;;;5079931;27;45592;-72
2022/03/27 11:50:46;;;;;;;;;17.00;14.33;;;;;;;;5079834;27;45495;-73
2022/03/27 11:53:12;;;;;;;;;17.67;16.00;;;;;;;;5080059;27;45271;-72
2022/03/27 11:55:39;;;;;;;;;17.67;16.33;;;;;;;;5079835;27;45441;-73
2022/03/27 11:58:07;;;;;;;;;20.00;14.67;;;;;;;;5078380;28;45441;-73
2022/03/27 12:00:40;;;;;;;;;20.67;19.67;;;;;;;;5079388;27;46041;-73
2022/03/27 12:03:15;;;;;;;;;20.33;16.67;;;;;;;;5079634;27;45309;-73
2022/03/27 12:05:41;;;;;;;;;15.00;13.00;;;;;;;;5078606;27;45376;-73
2022/03/27 12:08:07;;;;;;;;;15.33;13.67;;;;;;;;5078627;27;45403;-74
2022/03/27 12:10:41;;;;;;;;;17.67;14.33;;;;;;;;5079643;27;46238;-73
2022/03/27 12:13:08;;;;;;;;;12.67;12.33;;;;;;;;5079542;28;45377;-73
2022/03/27 12:15:46;;;;;;;;;12.00;11.00;;;;;;;;5078049;28;45223;-73
2022/03/27 12:18:32;;;;;;;;;14.67;12.67;;;;;;;;5079933;27;45390;-74
2022/03/27 12:20:58;;;;;;;;;17.67;15.00;;;;;;;;5079257;27;45453;-72
2022/03/27 12:23:28;;;;;;;;;11.00;11.00;;;;;;;;5078900;27;45519;-74
2022/03/27 12:26:04;;;;;;;;;14.33;12.33;;;;;;;;5079245;27;45625;-74
2022/03/27 12:31:21;;;;;;;;;14.33;14.00;;;;;;;;5079583;27;45318;-74
2022/03/27 12:33:47;;;;;;;;;17.00;15.67;;;;;;;;5079136;27;45337;-74
2022/03/27 12:36:13;;;;;;;;;13.33;11.00;;;;;;;;5078941;27;45376;-74
2022/03/27 12:38:39;;;;;;;;;11.67;9.67;;;;;;;;5079351;27;45243;-74
2022/03/27 12:41:06;;;;;;;;;7.67;7.00;;;;;;;;5077312;27;46565;-74
2022/03/27 12:43:32;;;;;;;;;10.67;10.67;;;;;;;;5077701;27;45395;-73
2022/03/27 12:45:58;;;;;;;;;14.67;10.33;;;;;;;;5077914;27;45527;-74
2022/03/27 12:48:28;;;;;;;;;14.67;13.67;;;;;;;;5079236;27;45449;-73
2022/03/27 12:51:11;;;;;;;;;9.33;9.00;;;;;;;;5077501;28;45504;-76
2022/03/27 12:53:36;;;;;;;;;12.00;11.00;;;;;;;;5077522;27;45508;-74
2022/03/27 12:56:01;;;;;;;;;16.33;13.00;;;;;;;;5078478;27;45239;-74
2022/03/27 12:58:37;;;;;;;;;14.00;13.00;;;;;;;;5079316;27;45406;-74
2022/03/27 13:01:03;;;;;;;;;14.00;12.00;;;;;;;;5078558;27;45286;-74
2022/03/27 13:03:29;;;;;;;;;10.33;9.33;;;;;;;;5078632;27;45353;-74
2022/03/27 13:05:56;;;;;;;;;9.67;9.00;;;;;;;;5078808;27;45385;-74
2022/03/27 13:08:31;;;;;;;;;8.00;6.67;;;;;;;;5077592;27;45655;-74
2022/03/27 13:11:02;;;;;;;;;8.67;7.33;;;;;;;;5078596;27;46234;-74
2022/03/27 13:13:38;;;;;;;;;9.33;9.33;;;;;;;;5077128;27;45504;-74
2022/03/27 13:16:36;;;;;;;;;8.67;8.00;;;;;;;;5078735;27;45418;-73
2022/03/27 13:19:05;;;;;;;;;10.67;10.00;;;;;;;;5065995;27;45430;-73
2022/03/27 13:21:33;;;;;;;;;9.00;8.00;;;;;;;;5076725;27;46326;-73
2022/03/27 13:23:59;;;;;;;;;9.67;8.67;;;;;;;;5077054;28;45941;-73
2022/03/27 13:26:27;;;;;;;;;9.33;8.00;;;;;;;;5078097;27;45359;-73
2022/03/27 13:28:52;;;;;;;;;10.00;8.33;;;;;;;;5078158;27;45409;-73
2022/03/27 13:31:19;;;;;;;;;10.00;9.67;;;;;;;;5078103;27;46152;-74
2022/03/27 13:33:45;;;;;;;;;4.00;3.33;;;;;;;;5077111;27;45491;-74
2022/03/27 13:36:10;;;;;;;;;10.33;9.33;;;;;;;;5077073;28;45471;-73
2022/03/27 13:38:36;;;;;;;;;11.67;9.67;;;;;;;;5078653;27;45476;-74
2022/03/27 13:43:46;;;;;;;;;9.00;9.00;;;;;;;;5078436;28;45249;-74
2022/03/27 13:46:11;;;;;;;;;13.33;11.00;;;;;;;;5077994;27;45218;-71
2022/03/27 13:48:36;;;;;;;;;15.00;12.00;;;;;;;;5077151;27;45242;-73
2022/03/27 13:51:03;;;;;;;;;14.00;12.00;;;;;;;;5077896;27;46162;-74
2022/03/27 13:53:28;;;;;;;;;12.33;11.33;;;;;;;;5077839;27;45467;-74
2022/03/27 13:55:53;;;;;;;;;11.00;10.33;;;;;;;;5076432;28;45585;-74
2022/03/27 13:58:19;;;;;;;;;10.33;9.33;;;;;;;;5077005;28;45484;-74
2022/03/27 14:00:44;;;;;;;;;11.00;11.00;;;;;;;;5077555;27;46119;-74
2022/03/27 14:03:10;;;;;;;;;12.67;11.67;;;;;;;;5078182;27;45391;-74
2022/03/27 14:05:36;;;;;;;;;10.33;10.00;;;;;;;;5079632;27;45430;-75
2022/03/27 14:08:01;;;;;;;;;8.67;8.33;;;;;;;;5077569;27;45249;-74
2022/03/27 14:10:27;;;;;;;;;10.00;8.00;;;;;;;;5077842;27;46438;-74
2022/03/27 14:12:52;;;;;;;;;13.33;10.00;;;;;;;;5076691;27;45389;-74
2022/03/27 14:15:18;;;;;;;;;9.67;9.67;;;;;;;;5076984;28;45649;-74
2022/03/27 14:17:48;;;;;;;;;12.33;10.00;;;;;;;;5078432;27;45480;-73
2022/03/27 14:20:13;;;;;;;;;9.00;8.00;;;;;;;;5077799;27;46581;-74
2022/03/27 14:22:38;;;;;;;;;9.00;8.00;;;;;;;;5076499;28;45472;-73
2022/03/27 14:25:04;;;;;;;;;8.67;8.00;;;;;;;;5076704;28;45385;-74
2022/03/27 14:27:30;;;;;;;;;6.33;6.33;;;;;;;;5078027;27;45194;-74
2022/03/27 14:29:55;;;;;;;;;11.67;8.00;;;;;;;;5077480;27;45481;-73
2022/03/27 14:32:24;;;;;;;;;7.33;7.33;;;;;;;;5076748;28;45514;-73
2022/03/27 14:34:55;;;;;;;;;8.67;8.00;;;;;;;;5078088;27;45538;-74
2022/03/27 14:37:22;;;;;;;;;9.00;7.67;;;;;;;;5076908;27;45694;-74
2022/03/27 14:39:47;;;;;;;;;8.67;8.00;;;;;;;;5077585;27;46850;-74